Time,TemperatureF,DewpointF,PressureIn,WindDirection,WindDirectionDegrees,WindSpeedMPH,WindSpeedGustMPH,Humidity,HourlyPrecipIn,Conditions,Clouds,dailyrainin,SoftwareType,DateUTC
2013-04-25 00:01:00,57.0,40.0,30.01,SSE,155,1.0,4.0,52,0.00,,,0.00,,2013-04-25 07:01:00,
2013-04-25 00:11:00,57.0,40.0,30.01,SSE,155,1.0,4.0,52,0.00,,,0.00,,2013-04-25 07:11:00,
2013-04-25 00:21:00,57.0,40.0,30.01,SSE,155,1.0,4.0,52,0.00,,,0.00,,2013-04-25 07:21:00,
2013-04-25 00:31:00,57.0,40.0,30.01,SSE,155,1.0,4.0,52,0.00,,,0.00,,2013-04-25 07:31:00,
2013-04-25 00:41:00,57.0,40.0,30.01,SSE,155,1.0,4.0,52,0.00,,,0.00,,2013-04-25 07:41:00,
2013-04-25 01:01:00,49.0,42.0,30.01,East,87,2.0,4.0,76,0.00,,,0.00,,2013-04-25 08:01:00,
2013-04-25 01:11:00,49.0,42.0,30.01,East,87,2.0,4.0,76,0.00,,,0.00,,2013-04-25 08:11:00,
2013-04-25 01:21:00,49.0,42.0,30.01,East,87,2.0,4.0,76,0.00,,,0.00,,2013-04-25 08:21:00,
2013-04-25 01:31:00,49.0,42.0,30.01,East,87,2.0,4.0,76,0.00,,,0.00,,2013-04-25 08:31:00,
2013-04-25 01:41:00,49.0,42.0,30.01,East,87,2.0,4.0,76,0.00,,,0.00,,2013-04-25 08:41:00,
2013-04-25 02:01:00,46.0,42.0,30.01,ENE,67,0.0,2.0,85,0.00,,,0.00,,2013-04-25 09:01:00,
2013-04-25 02:11:00,46.0,42.0,30.01,ENE,67,0.0,2.0,85,0.00,,,0.00,,2013-04-25 09:11:00,
2013-04-25 02:21:00,46.0,42.0,30.01,ENE,67,0.0,2.0,85,0.00,,,0.00,,2013-04-25 09:21:00,
2013-04-25 02:32:00,44.0,40.0,30.01,ENE,67,2.0,3.0,87,0.00,,,0.00,,2013-04-25 09:32:00,
2013-04-25 02:42:00,44.0,40.0,30.01,ENE,67,2.0,3.0,87,0.00,,,0.00,,2013-04-25 09:42:00,
2013-04-25 02:52:00,44.0,40.0,30.01,ENE,67,2.0,3.0,87,0.00,,,0.00,,2013-04-25 09:52:00,
2013-04-25 03:02:00,44.0,40.0,30.01,ENE,67,2.0,3.0,87,0.00,,,0.00,,2013-04-25 10:02:00,
2013-04-25 03:11:00,44.0,40.0,30.01,ENE,67,2.0,3.0,87,0.00,,,0.00,,2013-04-25 10:11:00,
2013-04-25 04:32:00,41.0,39.0,30.04,ENE,67,0.0,0.0,93,0.00,,,0.00,,2013-04-25 11:32:00,
2013-04-25 04:42:00,41.0,39.0,30.04,ENE,67,0.0,0.0,93,0.00,,,0.00,,2013-04-25 11:42:00,
2013-04-25 04:52:00,41.0,39.0,30.04,ENE,67,0.0,0.0,93,0.00,,,0.00,,2013-04-25 11:52:00,
2013-04-25 05:01:00,41.0,39.0,30.04,ENE,67,0.0,0.0,93,0.00,,,0.00,,2013-04-25 12:01:00,
2013-04-25 05:12:00,41.0,39.0,30.04,ENE,67,0.0,0.0,93,0.00,,,0.00,,2013-04-25 12:12:00,
2013-04-25 06:02:00,39.0,37.0,30.06,ENE,67,0.0,2.0,94,0.00,,,0.00,,2013-04-25 13:02:00,
2013-04-25 06:11:00,39.0,37.0,30.06,ENE,67,0.0,2.0,94,0.00,,,0.00,,2013-04-25 13:11:00,
2013-04-25 06:21:00,39.0,37.0,30.06,ENE,67,0.0,2.0,94,0.00,,,0.00,,2013-04-25 13:21:00,
2013-04-25 06:31:00,39.0,38.0,30.06,ENE,67,0.0,0.0,95,0.00,,,0.00,,2013-04-25 13:31:00,
2013-04-25 06:42:00,39.0,38.0,30.06,ENE,67,0.0,0.0,95,0.00,,,0.00,,2013-04-25 13:42:00,
2013-04-25 06:52:00,39.0,38.0,30.06,ENE,67,0.0,0.0,95,0.00,,,0.00,,2013-04-25 13:52:00,
2013-04-25 07:01:00,39.0,38.0,30.06,NW,307,0.0,1.0,95,0.00,,,0.00,,2013-04-25 14:01:00,
2013-04-25 07:11:00,39.0,38.0,30.06,NW,307,0.0,1.0,95,0.00,,,0.00,,2013-04-25 14:11:00,
2013-04-25 07:21:00,39.0,38.0,30.06,NW,307,0.0,1.0,95,0.00,,,0.00,,2013-04-25 14:21:00,
2013-04-25 07:32:00,39.0,38.0,30.07,NW,307,0.0,0.0,95,0.00,,,0.00,,2013-04-25 14:32:00,
2013-04-25 07:41:00,39.0,38.0,30.07,NW,307,0.0,0.0,95,0.00,,,0.00,,2013-04-25 14:41:00,
2013-04-25 07:52:00,39.0,38.0,30.07,NW,307,0.0,0.0,95,0.00,,,0.00,,2013-04-25 14:52:00,
2013-04-25 08:01:00,43.0,41.0,30.08,NW,307,0.0,0.0,94,0.00,,,0.00,,2013-04-25 15:01:00,
2013-04-25 08:11:00,43.0,41.0,30.08,NW,307,0.0,0.0,94,0.00,,,0.00,,2013-04-25 15:11:00,
2013-04-25 08:21:00,43.0,41.0,30.08,NW,307,0.0,0.0,94,0.00,,,0.00,,2013-04-25 15:21:00,
2013-04-25 08:33:00,48.0,44.0,30.08,NW,307,0.0,1.0,87,0.00,,,0.00,,2013-04-25 15:33:00,
2013-04-25 08:42:00,48.0,44.0,30.08,NW,307,0.0,1.0,87,0.00,,,0.00,,2013-04-25 15:42:00,
2013-04-25 08:53:00,48.0,44.0,30.08,NW,307,0.0,1.0,87,0.00,,,0.00,,2013-04-25 15:53:00,
2013-04-25 09:02:00,48.0,44.0,30.08,NW,307,0.0,1.0,87,0.00,,,0.00,,2013-04-25 16:02:00,
2013-04-25 09:13:00,48.0,44.0,30.08,NW,307,0.0,1.0,87,0.00,,,0.00,,2013-04-25 16:13:00,
2013-04-25 10:02:00,58.0,46.0,30.09,South,172,0.0,3.0,65,0.00,,,0.00,,2013-04-25 17:02:00,
2013-04-25 10:11:00,58.0,46.0,30.09,South,172,0.0,3.0,65,0.00,,,0.00,,2013-04-25 17:11:00,
2013-04-25 10:22:00,58.0,46.0,30.09,South,172,0.0,3.0,65,0.00,,,0.00,,2013-04-25 17:22:00,
2013-04-25 10:31:00,60.0,46.0,30.09,SW,217,0.0,3.0,60,0.00,,,0.00,,2013-04-25 17:31:00,
2013-04-25 10:41:00,60.0,46.0,30.09,SW,217,0.0,3.0,60,0.00,,,0.00,,2013-04-25 17:41:00,
2013-04-25 10:53:00,60.0,46.0,30.09,SW,217,0.0,3.0,60,0.00,,,0.00,,2013-04-25 17:53:00,
2013-04-25 11:01:00,62.0,46.0,30.09,NNE,20,0.0,3.0,56,0.00,,,0.00,,2013-04-25 18:01:00,
2013-04-25 11:11:00,62.0,46.0,30.09,NNE,20,0.0,3.0,56,0.00,,,0.00,,2013-04-25 18:11:00,
2013-04-25 11:21:00,62.0,46.0,30.09,NNE,20,0.0,3.0,56,0.00,,,0.00,,2013-04-25 18:21:00,
2013-04-25 11:32:00,62.0,46.0,30.09,NNE,20,0.0,3.0,56,0.00,,,0.00,,2013-04-25 18:32:00,
2013-04-25 11:42:00,62.0,46.0,30.09,NNE,20,0.0,3.0,56,0.00,,,0.00,,2013-04-25 18:42:00,
2013-04-25 12:01:00,67.0,46.0,30.09,SSE,160,0.0,3.0,47,0.00,,,0.00,,2013-04-25 19:01:00,
2013-04-25 12:12:00,67.0,46.0,30.09,SSE,160,0.0,3.0,47,0.00,,,0.00,,2013-04-25 19:12:00,
2013-04-25 12:21:00,67.0,46.0,30.09,SSE,160,0.0,3.0,47,0.00,,,0.00,,2013-04-25 19:21:00,
2013-04-25 12:31:00,68.0,49.0,30.09,SSW,202,1.0,3.0,50,0.00,,,0.00,,2013-04-25 19:31:00,
2013-04-25 12:41:00,68.0,49.0,30.09,SSW,202,1.0,3.0,50,0.00,,,0.00,,2013-04-25 19:41:00,
2013-04-25 12:52:00,68.0,49.0,30.09,SSW,202,1.0,3.0,50,0.00,,,0.00,,2013-04-25 19:52:00,
2013-04-25 13:01:00,68.0,49.0,30.09,SSW,202,1.0,3.0,50,0.00,,,0.00,,2013-04-25 20:01:00,
2013-04-25 13:11:00,68.0,49.0,30.09,SSW,202,1.0,3.0,50,0.00,,,0.00,,2013-04-25 20:11:00,
2013-04-25 14:33:00,76.0,48.0,30.07,ENE,70,2.0,5.0,37,0.00,,,0.00,,2013-04-25 21:33:00,
2013-04-25 14:42:00,76.0,48.0,30.07,ENE,70,2.0,5.0,37,0.00,,,0.00,,2013-04-25 21:42:00,
2013-04-25 14:52:00,76.0,48.0,30.07,ENE,70,2.0,5.0,37,0.00,,,0.00,,2013-04-25 21:52:00,
2013-04-25 15:02:00,76.0,44.0,30.07,NNE,12,5.0,13.0,32,0.00,,,0.00,,2013-04-25 22:02:00,
2013-04-25 15:12:00,76.0,44.0,30.07,NNE,12,5.0,13.0,32,0.00,,,0.00,,2013-04-25 22:12:00,
2013-04-25 15:22:00,76.0,44.0,30.07,NNE,12,5.0,13.0,32,0.00,,,0.00,,2013-04-25 22:22:00,
2013-04-25 15:32:00,77.0,45.0,30.07,WNW,290,4.0,9.0,32,0.00,,,0.00,,2013-04-25 22:32:00,
2013-04-25 15:42:00,77.0,45.0,30.07,WNW,290,4.0,9.0,32,0.00,,,0.00,,2013-04-25 22:42:00,
2013-04-25 15:52:00,77.0,45.0,30.07,WNW,290,4.0,9.0,32,0.00,,,0.00,,2013-04-25 22:52:00,
2013-04-25 16:02:00,77.0,45.0,30.06,North,5,4.0,11.0,32,0.00,,,0.00,,2013-04-25 23:02:00,
2013-04-25 16:12:00,77.0,45.0,30.06,North,5,4.0,11.0,32,0.00,,,0.00,,2013-04-25 23:12:00,
2013-04-25 16:22:00,77.0,45.0,30.06,North,5,4.0,11.0,32,0.00,,,0.00,,2013-04-25 23:22:00,
2013-04-25 16:32:00,77.0,45.0,30.06,North,5,4.0,11.0,32,0.00,,,0.00,,2013-04-25 23:32:00,
2013-04-25 16:41:00,77.0,45.0,30.06,North,5,4.0,11.0,32,0.00,,,0.00,,2013-04-25 23:41:00,
2013-04-25 18:32:00,76.0,41.0,30.07,NE,55,7.0,13.0,29,0.00,,,0.00,,2013-04-26 01:32:00,
2013-04-25 18:42:00,76.0,41.0,30.07,NE,55,7.0,13.0,29,0.00,,,0.00,,2013-04-26 01:42:00,
2013-04-25 18:52:00,76.0,41.0,30.07,NE,55,7.0,13.0,29,0.00,,,0.00,,2013-04-26 01:52:00,
2013-04-25 19:01:00,76.0,41.0,30.07,NE,55,7.0,13.0,29,0.00,,,0.00,,2013-04-26 02:01:00,
2013-04-25 19:11:00,76.0,41.0,30.07,NE,55,7.0,13.0,29,0.00,,,0.00,,2013-04-26 02:11:00,
2013-04-25 20:01:00,68.0,49.0,30.08,NNE,24,1.0,3.0,51,0.00,,,0.00,,2013-04-26 03:01:00,
2013-04-25 20:11:00,68.0,49.0,30.08,NNE,24,1.0,3.0,51,0.00,,,0.00,,2013-04-26 03:11:00,
2013-04-25 20:21:00,68.0,49.0,30.08,NNE,24,1.0,3.0,51,0.00,,,0.00,,2013-04-26 03:21:00,
2013-04-25 20:32:00,62.0,51.0,30.09,NNE,24,0.0,2.0,68,0.00,,,0.00,,2013-04-26 03:32:00,
2013-04-25 21:02:00,58.0,50.0,30.09,NNE,24,0.0,3.0,74,0.00,,,0.00,,2013-04-26 04:02:00,
2013-04-25 21:32:00,58.0,50.0,30.09,NNE,24,0.0,3.0,74,0.00,,,0.00,,2013-04-26 04:32:00,
2013-04-25 21:42:00,58.0,50.0,30.09,NNE,24,0.0,3.0,74,0.00,,,0.00,,2013-04-26 04:42:00,
2013-04-25 22:32:00,55.0,48.0,30.13,NNE,25,0.0,1.0,78,0.00,,,0.00,,2013-04-26 05:32:00,
2013-04-25 22:42:00,55.0,48.0,30.13,NNE,25,0.0,1.0,78,0.00,,,0.00,,2013-04-26 05:42:00,
2013-04-25 22:52:00,55.0,48.0,30.13,NNE,25,0.0,1.0,78,0.00,,,0.00,,2013-04-26 05:52:00,
2013-04-25 23:02:00,53.0,47.0,30.13,North,11,1.0,2.0,80,0.00,,,0.00,,2013-04-26 06:02:00,
2013-04-25 23:11:00,53.0,47.0,30.13,North,11,1.0,2.0,80,0.00,,,0.00,,2013-04-26 06:11:00,
2013-04-25 23:21:00,53.0,47.0,30.13,North,11,1.0,2.0,80,0.00,,,0.00,,2013-04-26 06:21:00,
2013-04-25 23:32:00,52.0,48.0,30.14,NNE,12,0.0,0.0,85,0.00,,,0.00,,2013-04-26 06:32:00,
2013-04-25 23:41:00,52.0,48.0,30.14,NNE,12,0.0,0.0,85,0.00,,,0.00,,2013-04-26 06:41:00,
2013-04-25 23:52:00,52.0,48.0,30.14,NNE,12,0.0,0.0,85,0.00,,,0.00,,2013-04-26 06:52:00,